Terminal Aerodrome Forecast
Issued by NWS Charleston, WV

Current Version | Previous Version | Text Only | Print | Product List | Glossary Off
Versions: 1 2 3 4 5 6 7 8 9 10 11 12 13 14 15 16 17 18 19 20 21 22 23 24 25

000
FTUS41 KRLX 301500 AAA
TAFBKW
TAF AMD
KBKW 301502Z 3015/0112 28006G16KT P6SM BKN045
     FM302000 31010G17KT 5SM -SHRA VCTS BKN035CB
     FM010100 32005KT 5SM -SHRA BR OVC030
     FM010500 31008KT 3SM -SHRA BR OVC020
     FM010800 30088KT 2SM -RADZ BR OVC010=

USA.gov is the U.S. government's official web portal to all federal, state and local government web resources and services.